ZBTJ/TSN METAR and TAF weather

Enter ICAO airport designator
Station Type Date Time Source
ZBTJ METAR 2019/10/21 04:30 UTC NOAA

ZBTJ 210430Z 13002MPS 060V220 CAVOK 20/04 Q1020 NOSIG


Station Type Date Time Source
ZBTJ Decoded METAR 2019/10/21 04:30 UTC NOAA

Tianjin / Zhangguizhu, China (ZBTJ) 39-11N 117-21E
Oct 21, 2019 - 12:30 AM EDT / 2019.10.21 0430 UTC
Wind: from the SE (130 degrees) at 4 MPH (4 KT) (direction variable):0
Visibility: greater than 7 mile(s):0
Temperature: 68 F (20 C)
Dew Point: 39 F (4 C)
Relative Humidity: 34%
Pressure (altimeter): 30.12 in. Hg (1020 hPa)
ob: ZBTJ 210430Z 13002MPS 060V220 CAVOK 20/04 Q1020 NOSIG
cycle: 4

Station Type Date Time Source
ZBTJ TAF 2019/10/21 06:03 UTC NOAA

TAF ZBTJ 210259Z 2106/2206 12003MPS 5000 HZ NSC TX20/2107Z TN08/2121Z
BECMG 2117/2118 2500 BR

Example: see airport list